Time;durP1;ratioP1;P1;durP2;ratioP2;P2;SDS_P1;SDS_P2;PMS_P1;PMS_P2;Temp;Humidity;BMP_temperature;BMP_pressure;BME280_temperature;BME280_humidity;BME280_pressure;Samples;Min_cycle;Max_cycle;Signal;HPM_P1;HPM_P2
2021/10/16 00:01:27;;;;;;;15.50;4.10;;;7.20;99.90;;;;;;5034858;28;20058;-73
2021/10/16 00:03:52;;;;;;;16.67;3.80;;;7.20;99.90;;;;;;5052332;28;20444;-73
2021/10/16 00:06:18;;;;;;;9.60;2.42;;;7.20;99.90;;;;;;5051434;28;20036;-73
2021/10/16 00:08:45;;;;;;;7.65;2.17;;;7.10;99.90;;;;;;5050986;28;20072;-73
2021/10/16 00:11:11;;;;;;;13.95;4.05;;;7.00;99.90;;;;;;5052036;28;20048;-73
2021/10/16 00:13:38;;;;;;;11.25;3.63;;;6.90;99.90;;;;;;5051299;28;20035;-73
2021/10/16 00:16:05;;;;;;;8.35;2.67;;;6.90;99.90;;;;;;5052273;28;20032;-73
2021/10/16 00:18:32;;;;;;;10.13;2.95;;;6.70;99.90;;;;;;5032887;28;20043;-73
2021/10/16 00:20:59;;;;;;;14.07;3.45;;;6.70;99.90;;;;;;5052321;28;20060;-73
2021/10/16 00:23:25;;;;;;;7.82;2.28;;;6.70;99.90;;;;;;5051507;28;20037;-73
2021/10/16 00:25:51;;;;;;;13.73;3.97;;;6.60;99.90;;;;;;5050595;28;20510;-73
2021/10/16 00:28:17;;;;;;;29.98;5.72;;;6.60;99.90;;;;;;5032287;28;20087;-73
2021/10/16 00:30:43;;;;;;;10.73;4.13;;;6.50;99.90;;;;;;5050801;28;20083;-73
2021/10/16 00:33:09;;;;;;;15.25;4.70;;;6.40;99.90;;;;;;5077492;28;20037;-73
2021/10/16 00:35:34;;;;;;;12.07;4.88;;;6.50;99.90;;;;;;5032285;28;20506;-73
2021/10/16 00:38:00;;;;;;;6.30;3.22;;;6.50;99.90;;;;;;5048602;28;20044;-73
2021/10/16 00:40:26;;;;;;;14.10;5.00;;;6.40;99.90;;;;;;5050966;28;20044;-73
2021/10/16 00:42:54;;;;;;;13.68;5.85;;;6.40;99.90;;;;;;5051088;28;20052;-73
2021/10/16 00:45:23;;;;;;;10.93;4.30;;;6.40;99.90;;;;;;5051228;28;20517;-73
2021/10/16 00:47:49;;;;;;;15.73;5.00;;;6.40;99.90;;;;;;5032254;28;20032;-72
2021/10/16 00:50:17;;;;;;;14.57;5.93;;;6.40;99.90;;;;;;5051454;28;20045;-73
2021/10/16 00:52:43;;;;;;;32.55;6.57;;;6.30;99.90;;;;;;5050571;28;20596;-73
2021/10/16 00:55:11;;;;;;;17.45;5.70;;;6.30;99.90;;;;;;5032516;28;20598;-73
2021/10/16 00:57:37;;;;;;;8.55;3.60;;;6.30;99.90;;;;;;5033961;28;20032;-73
2021/10/16 01:00:05;;;;;;;20.48;5.30;;;6.20;99.90;;;;;;5051688;28;20064;-73
2021/10/16 01:02:32;;;;;;;16.95;6.35;;;6.20;99.90;;;;;;5052031;28;20055;-73
2021/10/16 01:05:04;;;;;;;13.40;5.57;;;6.20;99.90;;;;;;5033198;28;20114;-72
2021/10/16 01:07:33;;;;;;;13.03;4.40;;;6.20;99.90;;;;;;5051144;28;20495;-73
2021/10/16 01:10:00;;;;;;;10.20;3.80;;;6.10;99.90;;;;;;5048699;28;20048;-73
2021/10/16 01:12:29;;;;;;;11.52;4.25;;;6.10;99.90;;;;;;5034351;28;20040;-73
2021/10/16 01:15:02;;;;;;;9.20;4.40;;;6.10;99.90;;;;;;5051610;28;20218;-73
2021/10/16 01:17:33;;;;;;;16.40;5.97;;;6.10;99.90;;;;;;5034468;28;20495;-73
2021/10/16 01:20:12;;;;;;;13.63;4.65;;;6.10;99.90;;;;;;5050972;28;20052;-72
2021/10/16 01:22:40;;;;;;;18.25;5.93;;;6.10;99.90;;;;;;5051108;28;20072;-72
2021/10/16 01:25:15;;;;;;;11.32;4.07;;;6.10;99.90;;;;;;5050443;28;20048;-72
2021/10/16 01:27:41;;;;;;;8.43;4.10;;;6.10;99.90;;;;;;5048174;28;20499;-72
2021/10/16 01:30:09;;;;;;;24.17;7.10;;;6.10;99.90;;;;;;5034137;28;20127;-72
2021/10/16 01:32:39;;;;;;;14.80;6.88;;;6.00;99.90;;;;;;5050388;28;20097;-72
2021/10/16 01:35:07;;;;;;;11.73;5.18;;;6.10;99.90;;;;;;5048435;28;20127;-73
2021/10/16 01:37:34;;;;;;;9.88;4.35;;;6.10;99.90;;;;;;5049707;28;20610;-72
2021/10/16 01:40:00;;;;;;;21.13;7.90;;;6.10;99.90;;;;;;5033393;28;20048;-72
2021/10/16 01:42:26;;;;;;;10.13;4.97;;;6.10;99.90;;;;;;5050222;28;20193;-72
2021/10/16 01:44:52;;;;;;;13.70;5.57;;;6.10;99.90;;;;;;5050455;28;21272;-72
2021/10/16 01:47:18;;;;;;;11.50;5.85;;;6.10;99.90;;;;;;5047210;28;20045;-72
2021/10/16 01:49:43;;;;;;;17.07;6.63;;;6.10;99.90;;;;;;5049249;28;20166;-72
2021/10/16 01:52:09;;;;;;;14.68;5.50;;;6.10;99.90;;;;;;5050399;28;20052;-72
2021/10/16 01:54:35;;;;;;;17.38;7.30;;;6.20;99.90;;;;;;5028846;28;20052;-72
2021/10/16 01:57:01;;;;;;;10.13;5.15;;;6.20;99.90;;;;;;5030393;28;20045;-73
2021/10/16 01:59:28;;;;;;;12.37;5.57;;;6.20;99.90;;;;;;5032904;28;20040;-72
2021/10/16 02:01:54;;;;;;;14.48;6.38;;;6.30;99.90;;;;;;5031487;28;20135;-72
2021/10/16 02:04:20;;;;;;;15.05;7.10;;;6.40;99.90;;;;;;5033949;28;20064;-73
2021/10/16 02:06:46;;;;;;;13.77;5.85;;;6.40;99.90;;;;;;5050354;28;20394;-73
2021/10/16 02:09:13;;;;;;;18.65;8.15;;;6.40;99.90;;;;;;5051387;28;20055;-72
2021/10/16 02:11:39;;;;;;;16.38;7.75;;;6.50;99.90;;;;;;5050735;28;20515;-72
2021/10/16 02:14:07;;;;;;;15.75;6.30;;;6.50;99.90;;;;;;5051239;28;20075;-73
2021/10/16 02:16:33;;;;;;;13.90;7.13;;;6.50;99.90;;;;;;5050728;28;20037;-73
2021/10/16 02:18:59;;;;;;;10.77;5.10;;;6.60;99.90;;;;;;5050737;28;20076;-72
2021/10/16 02:21:26;;;;;;;20.13;8.10;;;6.60;99.90;;;;;;5050789;28;20486;-72
2021/10/16 02:23:52;;;;;;;21.85;8.50;;;6.60;99.90;;;;;;5050221;28;20102;-72
2021/10/16 02:26:18;;;;;;;12.38;6.55;;;6.60;99.90;;;;;;5050233;28;20131;-72
2021/10/16 02:28:44;;;;;;;12.80;6.18;;;6.70;99.90;;;;;;5049382;28;20154;-73
2021/10/16 02:31:10;;;;;;;15.55;6.30;;;6.70;99.90;;;;;;5067825;28;20185;-72
2021/10/16 02:33:35;;;;;;;11.40;5.50;;;6.70;99.90;;;;;;5067084;28;20143;-73
2021/10/16 02:36:02;;;;;;;11.63;6.43;;;6.70;99.90;;;;;;5050708;28;20040;-73
2021/10/16 02:38:28;;;;;;;15.02;8.50;;;6.80;99.90;;;;;;5051619;28;20100;-72
2021/10/16 02:40:54;;;;;;;19.08;7.97;;;6.80;99.90;;;;;;5041763;28;20129;-73
2021/10/16 02:43:20;;;;;;;11.85;5.78;;;6.80;99.90;;;;;;5048279;28;20129;-73
2021/10/16 02:45:48;;;;;;;12.23;5.80;;;6.90;99.90;;;;;;5030056;28;20504;-72
2021/10/16 02:48:14;;;;;;;12.50;6.80;;;6.90;99.90;;;;;;5011180;28;20526;-72
2021/10/16 02:50:40;;;;;;;19.67;8.85;;;6.90;99.90;;;;;;5026508;28;20037;-72
2021/10/16 02:53:06;;;;;;;16.10;7.65;;;6.90;99.90;;;;;;5029532;28;20055;-72
2021/10/16 02:55:34;;;;;;;14.30;6.68;;;6.90;99.90;;;;;;5030841;28;20385;-73
2021/10/16 02:58:00;;;;;;;13.07;5.85;;;7.00;99.90;;;;;;5036783;28;20037;-73
2021/10/16 03:00:26;;;;;;;15.98;7.53;;;6.90;99.90;;;;;;5050365;28;20549;-72
2021/10/16 03:02:52;;;;;;;11.80;5.85;;;7.00;99.90;;;;;;5049649;28;20040;-73
2021/10/16 03:05:18;;;;;;;14.07;6.95;;;7.00;99.90;;;;;;5050259;28;20054;-72
2021/10/16 03:07:44;;;;;;;13.25;5.97;;;7.10;99.90;;;;;;5033164;28;20135;-72
2021/10/16 03:10:12;;;;;;;12.85;5.78;;;7.10;99.90;;;;;;5033489;28;20094;-73
2021/10/16 03:12:38;;;;;;;15.00;6.90;;;7.00;99.90;;;;;;5033255;28;20135;-72
2021/10/16 03:15:04;;;;;;;17.38;6.70;;;7.00;99.90;;;;;;5049676;28;20123;-73
2021/10/16 03:17:30;;;;;;;21.90;8.18;;;7.10;99.90;;;;;;5033528;28;20094;-73
2021/10/16 03:19:56;;;;;;;14.70;7.25;;;7.10;99.90;;;;;;5050710;28;20049;-72
2021/10/16 03:22:21;;;;;;;13.70;7.03;;;7.20;99.90;;;;;;5018816;28;20045;-73
2021/10/16 03:24:47;;;;;;;14.63;7.35;;;7.10;99.90;;;;;;5017268;28;20192;-73
2021/10/16 03:27:13;;;;;;;13.35;6.68;;;7.10;99.90;;;;;;5021310;28;20036;-73
2021/10/16 03:29:39;;;;;;;13.45;6.50;;;7.10;99.90;;;;;;5054629;28;20135;-73
2021/10/16 03:32:05;;;;;;;14.48;7.07;;;7.10;99.90;;;;;;5071102;28;20135;-72
2021/10/16 03:34:34;;;;;;;14.05;6.30;;;7.20;99.90;;;;;;5054924;28;20052;-72
2021/10/16 03:36:59;;;;;;;15.02;7.20;;;7.10;99.90;;;;;;5038192;28;20036;-72
2021/10/16 03:39:25;;;;;;;17.08;7.00;;;7.10;99.90;;;;;;5055028;28;20048;-72
2021/10/16 03:41:51;;;;;;;10.38;5.72;;;7.20;99.90;;;;;;5070725;28;20196;-71
2021/10/16 03:44:17;;;;;;;13.88;6.30;;;7.20;99.90;;;;;;5054730;28;20055;-71
2021/10/16 03:46:43;;;;;;;12.98;5.97;;;7.20;99.90;;;;;;5047655;28;20372;-71
2021/10/16 03:49:08;;;;;;;15.85;7.30;;;7.20;99.90;;;;;;5037568;28;20087;-72
2021/10/16 03:51:34;;;;;;;13.18;5.50;;;7.20;99.90;;;;;;5050610;28;20061;-72
2021/10/16 03:54:04;;;;;;;12.93;5.88;;;7.20;99.90;;;;;;5048884;28;20056;-72
2021/10/16 03:56:30;;;;;;;14.32;6.30;;;7.30;99.90;;;;;;5034315;28;20052;-71
2021/10/16 03:58:56;;;;;;;16.27;6.95;;;7.30;99.90;;;;;;5051405;28;20049;-71
2021/10/16 04:01:22;;;;;;;15.18;6.43;;;7.30;99.90;;;;;;5033355;28;20091;-71
2021/10/16 04:03:48;;;;;;;14.40;6.45;;;7.30;99.90;;;;;;5051479;28;20080;-71
2021/10/16 04:06:15;;;;;;;10.43;5.50;;;7.30;99.90;;;;;;5050834;28;20037;-71
2021/10/16 04:08:41;;;;;;;11.40;5.47;;;7.30;99.90;;;;;;5051820;28;20525;-71
2021/10/16 04:11:06;;;;;;;9.95;5.70;;;7.30;99.90;;;;;;5035030;28;20045;-71
2021/10/16 04:13:32;;;;;;;17.30;6.30;;;7.30;99.90;;;;;;5035562;28;20879;-71
2021/10/16 04:15:58;;;;;;;13.98;5.20;;;7.40;99.90;;;;;;5048768;28;20060;-73
2021/10/16 04:18:24;;;;;;;11.20;4.93;;;7.40;99.90;;;;;;5051840;28;20089;-73
2021/10/16 04:20:49;;;;;;;11.70;5.25;;;7.40;99.90;;;;;;5051430;28;20044;-73
2021/10/16 04:23:15;;;;;;;14.68;6.03;;;7.40;99.90;;;;;;5051427;28;20499;-71
2021/10/16 04:25:41;;;;;;;10.45;5.00;;;7.40;99.90;;;;;;5050020;28;20041;-71
2021/10/16 04:28:07;;;;;;;14.95;5.80;;;7.40;99.90;;;;;;5050525;28;20040;-71
2021/10/16 04:30:33;;;;;;;12.18;5.78;;;7.40;99.90;;;;;;5033782;28;20040;-71
2021/10/16 04:33:02;;;;;;;12.02;5.70;;;7.40;99.90;;;;;;5035077;28;20051;-71
2021/10/16 04:35:28;;;;;;;12.75;5.63;;;7.40;99.90;;;;;;5032954;28;20041;-71
2021/10/16 04:37:54;;;;;;;11.80;5.85;;;7.40;99.90;;;;;;5050648;28;20040;-71
2021/10/16 04:40:24;;;;;;;11.75;6.00;;;7.40;99.90;;;;;;5034869;28;20067;-74
2021/10/16 04:42:50;;;;;;;12.50;5.18;;;7.40;99.90;;;;;;5050929;28;20044;-71
2021/10/16 04:45:16;;;;;;;14.15;6.22;;;7.40;99.90;;;;;;5034486;28;20055;-71
2021/10/16 04:47:42;;;;;;;11.88;5.35;;;7.40;99.90;;;;;;5050302;28;20068;-71
2021/10/16 04:50:09;;;;;;;11.10;5.70;;;7.40;99.90;;;;;;5034501;28;20145;-71
2021/10/16 04:52:35;;;;;;;17.48;6.78;;;7.40;99.90;;;;;;5033940;28;20052;-71
2021/10/16 04:55:04;;;;;;;11.63;6.05;;;7.40;99.90;;;;;;5034325;28;20052;-71
2021/10/16 04:57:30;;;;;;;14.85;6.45;;;7.50;99.90;;;;;;5051397;28;20102;-71
2021/10/16 04:59:56;;;;;;;10.57;5.88;;;7.50;99.90;;;;;;5050963;28;20145;-71
2021/10/16 05:02:24;;;;;;;11.82;5.93;;;7.40;99.90;;;;;;5033220;28;20173;-71
2021/10/16 05:04:54;;;;;;;15.85;6.85;;;7.50;99.90;;;;;;5050488;28;20399;-71
2021/10/16 05:07:20;;;;;;;12.20;5.47;;;7.50;99.90;;;;;;5031756;28;20560;-71
2021/10/16 05:09:46;;;;;;;12.43;6.20;;;7.50;99.90;;;;;;5033968;28;20128;-71
2021/10/16 05:12:12;;;;;;;12.38;6.20;;;7.50;99.90;;;;;;5050689;28;20044;-71
2021/10/16 05:14:38;;;;;;;12.93;6.00;;;7.50;99.90;;;;;;5050064;28;20055;-71
2021/10/16 05:17:04;;;;;;;11.45;5.45;;;7.50;99.90;;;;;;5050914;28;20036;-72
2021/10/16 05:19:31;;;;;;;13.13;6.47;;;7.60;99.90;;;;;;5034865;28;20044;-72
2021/10/16 05:21:57;;;;;;;13.82;7.40;;;7.60;99.90;;;;;;5050185;28;20067;-72
2021/10/16 05:24:22;;;;;;;17.85;6.72;;;7.50;99.90;;;;;;5051426;28;20494;-72
2021/10/16 05:26:48;;;;;;;15.52;7.35;;;7.60;99.90;;;;;;5032406;28;20036;-72
2021/10/16 05:29:14;;;;;;;11.50;5.30;;;7.60;99.90;;;;;;5050486;28;20064;-72
2021/10/16 05:31:40;;;;;;;13.40;6.07;;;7.60;99.90;;;;;;5034589;28;20380;-72
2021/10/16 05:34:06;;;;;;;15.18;6.28;;;7.60;99.90;;;;;;5034698;28;20052;-72
2021/10/16 05:36:32;;;;;;;14.95;6.43;;;7.60;99.90;;;;;;5050671;28;20048;-72
2021/10/16 05:38:58;;;;;;;13.07;6.18;;;7.60;99.90;;;;;;5051607;28;20044;-72
2021/10/16 05:41:23;;;;;;;13.65;6.15;;;7.70;99.90;;;;;;5033855;28;20051;-72
2021/10/16 05:43:49;;;;;;;13.57;6.13;;;7.70;99.90;;;;;;5033263;28;20041;-72
2021/10/16 05:46:15;;;;;;;12.77;6.53;;;7.70;99.90;;;;;;5049723;28;20376;-72
2021/10/16 05:48:41;;;;;;;11.85;6.20;;;7.70;99.90;;;;;;5034195;28;20093;-72
2021/10/16 05:51:06;;;;;;;14.48;6.60;;;7.70;99.90;;;;;;5049842;28;20044;-72
2021/10/16 05:53:32;;;;;;;9.38;5.60;;;7.70;99.90;;;;;;5049788;28;20048;-72
2021/10/16 05:55:58;;;;;;;15.00;7.22;;;7.70;99.90;;;;;;5031437;28;20514;-72
2021/10/16 05:58:25;;;;;;;12.45;6.32;;;7.70;99.90;;;;;;5049903;28;20057;-72
2021/10/16 06:00:51;;;;;;;13.25;5.80;;;7.80;99.90;;;;;;5031751;28;20036;-72
2021/10/16 06:03:17;;;;;;;13.65;5.57;;;7.80;99.90;;;;;;5050770;28;20414;-72
2021/10/16 06:05:43;;;;;;;15.30;6.50;;;7.80;99.90;;;;;;5050902;28;20495;-72
2021/10/16 06:08:09;;;;;;;13.15;5.90;;;7.80;99.90;;;;;;5034313;28;20048;-72
2021/10/16 06:10:38;;;;;;;13.65;5.72;;;7.90;99.90;;;;;;5050904;28;20055;-72
2021/10/16 06:13:04;;;;;;;15.05;6.90;;;7.80;99.90;;;;;;5050249;28;20055;-72
2021/10/16 06:15:30;;;;;;;13.05;5.93;;;7.80;99.90;;;;;;5051231;28;20074;-72
2021/10/16 06:17:56;;;;;;;13.05;6.05;;;7.80;99.90;;;;;;5050136;28;20044;-72
2021/10/16 06:20:22;;;;;;;11.70;5.78;;;7.80;99.90;;;;;;5047291;28;20056;-72
2021/10/16 06:22:49;;;;;;;12.32;5.82;;;7.90;99.90;;;;;;5013828;28;20586;-72
2021/10/16 06:25:15;;;;;;;12.55;7.03;;;7.90;99.90;;;;;;5034601;28;20507;-72
2021/10/16 06:27:41;;;;;;;14.90;7.20;;;7.90;99.90;;;;;;5049652;28;20041;-72
2021/10/16 06:30:07;;;;;;;15.05;6.32;;;7.90;99.90;;;;;;5050607;28;20059;-72
2021/10/16 06:32:32;;;;;;;12.80;5.85;;;7.90;99.90;;;;;;5033654;28;20135;-72
2021/10/16 06:35:01;;;;;;;16.00;6.13;;;7.90;99.90;;;;;;5050256;28;20039;-72
2021/10/16 06:37:27;;;;;;;13.27;5.53;;;7.90;99.90;;;;;;5050449;28;20049;-72
2021/10/16 06:39:52;;;;;;;15.63;6.15;;;7.90;99.90;;;;;;5050842;28;20143;-72
2021/10/16 06:42:18;;;;;;;13.93;6.00;;;8.00;99.90;;;;;;5034324;28;20052;-72
2021/10/16 06:44:44;;;;;;;11.38;5.10;;;8.00;99.90;;;;;;5066994;28;20041;-72
2021/10/16 06:47:10;;;;;;;15.00;6.35;;;8.00;99.90;;;;;;5049603;28;20474;-72
2021/10/16 06:49:35;;;;;;;16.40;6.20;;;8.00;99.90;;;;;;5033766;28;20076;-72
2021/10/16 06:52:04;;;;;;;14.82;5.50;;;8.10;99.90;;;;;;5049795;28;20048;-72
2021/10/16 06:54:30;;;;;;;14.05;5.75;;;8.10;99.90;;;;;;5049946;28;20139;-72
2021/10/16 06:56:56;;;;;;;11.15;5.88;;;8.10;99.90;;;;;;5032295;28;20051;-72
2021/10/16 06:59:21;;;;;;;11.20;5.57;;;8.10;99.90;;;;;;5013852;28;20052;-72
2021/10/16 07:01:47;;;;;;;13.93;5.50;;;8.20;99.90;;;;;;5061170;28;20044;-71
2021/10/16 07:04:13;;;;;;;12.48;6.13;;;8.20;99.90;;;;;;5031124;28;20041;-72
2021/10/16 07:06:40;;;;;;;9.85;5.20;;;8.20;99.90;;;;;;5030338;28;20107;-71
2021/10/16 07:09:06;;;;;;;12.20;5.40;;;8.20;99.90;;;;;;5031243;28;20052;-71
2021/10/16 07:11:34;;;;;;;10.73;5.18;;;8.30;99.90;;;;;;5030839;28;20033;-71
2021/10/16 07:14:00;;;;;;;14.85;4.97;;;8.30;99.90;;;;;;5030954;28;20641;-71
2021/10/16 07:16:26;;;;;;;13.88;5.65;;;8.30;99.90;;;;;;5030944;28;20139;-71
2021/10/16 07:18:52;;;;;;;12.93;5.35;;;8.40;99.90;;;;;;5037638;28;20048;-71
2021/10/16 07:21:18;;;;;;;11.48;5.30;;;8.40;99.90;;;;;;5034816;28;20097;-71
2021/10/16 07:23:45;;;;;;;9.45;4.95;;;8.40;99.90;;;;;;5049564;28;20068;-71
2021/10/16 07:26:12;;;;;;;13.40;6.07;;;8.50;99.90;;;;;;5066137;28;20131;-71
2021/10/16 07:28:37;;;;;;;12.73;4.65;;;8.50;99.90;;;;;;5065842;28;20056;-71
2021/10/16 07:31:03;;;;;;;16.02;4.70;;;8.50;99.90;;;;;;5067498;28;20048;-71
2021/10/16 07:33:29;;;;;;;15.13;5.75;;;8.60;99.90;;;;;;5050522;28;20557;-71
2021/10/16 07:35:55;;;;;;;15.68;6.00;;;8.60;99.90;;;;;;5050487;28;20394;-71
2021/10/16 07:38:23;;;;;;;12.73;6.60;;;8.60;99.90;;;;;;5050810;28;20051;-71
2021/10/16 07:40:49;;;;;;;10.77;6.00;;;8.70;99.90;;;;;;5050218;28;20123;-71
2021/10/16 07:43:15;;;;;;;11.45;6.38;;;8.70;99.90;;;;;;5049646;28;20057;-71
2021/10/16 07:45:41;;;;;;;14.20;6.75;;;8.70;99.90;;;;;;5063014;28;20032;-71
2021/10/16 07:48:07;;;;;;;12.52;5.70;;;8.70;99.90;;;;;;5031061;28;20049;-72
2021/10/16 07:50:33;;;;;;;11.98;5.53;;;8.70;99.90;;;;;;5047350;28;20119;-71
2021/10/16 07:52:59;;;;;;;12.50;5.70;;;8.80;99.90;;;;;;5049365;28;20138;-71
2021/10/16 07:55:24;;;;;;;11.70;5.15;;;8.80;99.90;;;;;;5027431;28;20107;-72
2021/10/16 07:57:52;;;;;;;14.00;5.97;;;8.80;99.90;;;;;;5029505;28;20728;-71
2021/10/16 08:00:17;;;;;;;11.75;4.93;;;8.90;99.90;;;;;;5049116;28;20063;-71
2021/10/16 08:02:44;;;;;;;9.70;5.20;;;8.90;99.90;;;;;;5048550;28;20475;-71
2021/10/16 08:05:14;;;;;;;13.07;5.53;;;8.90;99.90;;;;;;5052359;28;20135;-71
2021/10/16 08:07:40;;;;;;;14.10;5.60;;;9.00;99.90;;;;;;5069918;28;20468;-71
2021/10/16 08:10:07;;;;;;;13.30;5.50;;;9.00;99.90;;;;;;5053715;28;20071;-71
2021/10/16 08:12:33;;;;;;;12.40;5.65;;;9.00;99.90;;;;;;5053125;28;20482;-71
2021/10/16 08:14:58;;;;;;;13.63;5.95;;;9.00;99.90;;;;;;5053198;28;20041;-72
2021/10/16 08:17:24;;;;;;;12.15;4.93;;;9.10;99.90;;;;;;5053425;28;20049;-71
2021/10/16 08:19:50;;;;;;;12.60;5.53;;;9.10;99.90;;;;;;5035918;28;20131;-71
2021/10/16 08:22:16;;;;;;;13.65;5.60;;;9.20;99.90;;;;;;5053507;28;20479;-71
2021/10/16 08:24:43;;;;;;;12.95;5.57;;;9.30;99.90;;;;;;5035875;28;20139;-71
2021/10/16 08:27:09;;;;;;;10.88;4.78;;;9.30;99.90;;;;;;5050299;28;20503;-71
2021/10/16 08:29:35;;;;;;;12.30;4.43;;;9.40;99.90;;;;;;5033047;28;20053;-71
2021/10/16 08:32:02;;;;;;;12.27;5.20;;;9.40;99.90;;;;;;5049734;28;20063;-71
2021/10/16 08:34:34;;;;;;;12.35;4.82;;;9.50;99.90;;;;;;5033132;28;20045;-71
2021/10/16 08:37:00;;;;;;;10.27;4.22;;;9.50;99.90;;;;;;5016376;28;20075;-71
2021/10/16 08:39:26;;;;;;;16.90;6.30;;;9.50;99.90;;;;;;5032086;28;20045;-71
2021/10/16 08:41:52;;;;;;;11.48;5.03;;;9.60;99.90;;;;;;5032216;28;20094;-71
2021/10/16 08:44:18;;;;;;;11.90;4.95;;;9.60;99.90;;;;;;5032757;28;20061;-71
2021/10/16 08:46:44;;;;;;;10.10;4.15;;;9.60;99.90;;;;;;5045185;28;20763;-71
2021/10/16 08:49:15;;;;;;;10.38;4.72;;;9.70;99.90;;;;;;5052839;28;20056;-71
2021/10/16 08:51:43;;;;;;;12.18;5.15;;;9.70;99.90;;;;;;5035123;28;20059;-71
2021/10/16 08:54:09;;;;;;;12.25;4.60;;;9.70;99.90;;;;;;5052487;28;20040;-70
2021/10/16 08:56:35;;;;;;;10.80;4.45;;;9.80;99.90;;;;;;5050466;28;20487;-71
2021/10/16 08:59:00;;;;;;;11.45;4.80;;;9.80;99.90;;;;;;5052304;28;20416;-71
2021/10/16 09:01:27;;;;;;;13.98;4.55;;;9.90;99.90;;;;;;5041778;28;20098;-71
2021/10/16 09:03:54;;;;;;;12.82;4.50;;;9.90;99.90;;;;;;4999199;28;20076;-71
2021/10/16 09:06:25;;;;;;;12.80;4.40;;;9.90;99.90;;;;;;5048964;28;20114;-71
2021/10/16 09:08:56;;;;;;;10.25;3.85;;;9.90;99.90;;;;;;5015435;28;20084;-71
2021/10/16 09:11:44;;;;;;;10.52;4.53;;;10.00;99.90;;;;;;5032401;28;20052;-71
2021/10/16 09:14:20;;;;;;;13.05;5.05;;;10.00;99.90;;;;;;5040446;28;20036;-71
2021/10/16 09:16:50;;;;;;;8.88;4.43;;;10.00;99.90;;;;;;5049642;28;20028;-71
2021/10/16 09:19:17;;;;;;;10.10;4.70;;;10.00;99.90;;;;;;5035178;28;20106;-71
2021/10/16 09:21:56;;;;;;;11.07;4.68;;;10.10;99.90;;;;;;5051220;28;20073;-71
2021/10/16 09:24:25;;;;;;;10.70;4.68;;;10.10;99.90;;;;;;5051331;28;20048;-71
2021/10/16 09:27:10;;;;;;;10.77;4.93;;;10.20;99.90;;;;;;5050203;28;20491;-71
2021/10/16 09:29:41;;;;;;;16.40;5.10;;;10.20;99.90;;;;;;5049046;28;20044;-70
2021/10/16 09:32:13;;;;;;;11.40;4.63;;;10.30;99.90;;;;;;5051433;28;20048;-71
2021/10/16 09:34:44;;;;;;;11.13;4.18;;;10.30;99.90;;;;;;5050990;28;20047;-71
2021/10/16 09:37:21;;;;;;;13.57;4.60;;;10.40;99.90;;;;;;5034772;28;20040;-71
2021/10/16 09:39:50;;;;;;;11.00;4.68;;;10.40;99.90;;;;;;5034021;28;20048;-70
2021/10/16 09:42:29;;;;;;;13.23;4.75;;;10.50;99.90;;;;;;5051196;28;20079;-71
2021/10/16 09:45:00;;;;;;;7.43;3.83;;;10.60;99.90;;;;;;5049923;28;20041;-71
2021/10/16 09:47:26;;;;;;;;;;;10.60;99.90;;;;;;5051552;28;20040;-71
2021/10/16 09:50:06;;;;;;;12.48;4.63;;;10.70;99.90;;;;;;5033324;28;20767;-71
2021/10/16 09:52:51;;;;;;;12.15;4.07;;;10.80;99.90;;;;;;5049907;28;20045;-71
2021/10/16 09:55:17;;;;;;;12.35;4.25;;;10.90;99.90;;;;;;5049278;28;20056;-71
2021/10/16 09:57:44;;;;;;;9.63;4.53;;;10.90;99.90;;;;;;5049849;28;20029;-70
2021/10/16 10:00:12;;;;;;;14.23;4.40;;;11.00;99.90;;;;;;5049577;28;20062;-71
2021/10/16 10:02:38;;;;;;;10.07;4.45;;;11.00;99.90;;;;;;5050359;28;20076;-71
2021/10/16 10:05:06;;;;;;;15.60;4.40;;;11.10;99.90;;;;;;5048747;28;20037;-70
2021/10/16 10:07:34;;;;;;;13.60;4.43;;;11.10;99.90;;;;;;5050070;28;20053;-71
2021/10/16 10:10:00;;;;;;;8.65;3.78;;;11.10;99.90;;;;;;5049261;28;20052;-71
2021/10/16 10:12:28;;;;;;;9.52;3.78;;;11.10;99.90;;;;;;5049512;28;20052;-71
2021/10/16 10:14:54;;;;;;;12.98;4.65;;;11.20;99.90;;;;;;5032820;28;20044;-71
2021/10/16 10:17:29;;;;;;;11.80;4.40;;;11.20;99.90;;;;;;5032868;28;20037;-71
2021/10/16 10:20:14;;;;;;;12.55;4.57;;;11.20;99.90;;;;;;5052964;28;20119;-71
2021/10/16 10:22:42;;;;;;;11.52;4.00;;;11.30;99.90;;;;;;5033015;28;20087;-71
2021/10/16 10:25:25;;;;;;;13.45;5.13;;;11.30;99.90;;;;;;5032453;28;20040;-71
2021/10/16 10:27:53;;;;;;;13.80;4.15;;;11.30;99.90;;;;;;5071195;28;20116;-71
2021/10/16 10:30:34;;;;;;;10.02;3.33;;;11.40;99.90;;;;;;5049555;28;20049;-71
2021/10/16 10:33:15;;;;;;;12.13;3.53;;;11.40;99.90;;;;;;5031681;28;20101;-71
2021/10/16 10:36:07;;;;;;;10.45;3.97;;;11.40;99.90;;;;;;5048758;28;20044;-71
2021/10/16 10:38:35;;;;;;;10.98;5.28;;;11.40;99.90;;;;;;5024509;28;20131;-71
2021/10/16 10:41:23;;;;;;;14.52;5.47;;;11.50;99.90;;;;;;5048781;28;20044;-71
2021/10/16 10:43:49;;;;;;;11.10;5.07;;;11.50;99.90;;;;;;5047866;28;20037;-71
2021/10/16 10:46:15;;;;;;;12.15;4.72;;;11.50;99.90;;;;;;5048149;28;20036;-71
2021/10/16 10:48:42;;;;;;;13.23;5.57;;;11.50;99.90;;;;;;5048970;28;20106;-72
2021/10/16 10:51:08;;;;;;;15.70;5.20;;;11.60;99.90;;;;;;5031937;28;20123;-72
2021/10/16 10:53:37;;;;;;;17.27;5.60;;;11.60;99.90;;;;;;5032562;28;20135;-71
2021/10/16 10:56:09;;;;;;;15.05;4.75;;;11.60;99.90;;;;;;5047997;28;20041;-71
2021/10/16 10:58:55;;;;;;;10.85;3.90;;;11.60;99.90;;;;;;5049101;28;20202;-71
2021/10/16 11:01:43;;;;;;;12.13;4.30;;;11.60;99.90;;;;;;5048306;28;20056;-71
2021/10/16 11:04:10;;;;;;;9.93;3.72;;;11.70;99.90;;;;;;5032124;28;20036;-71
2021/10/16 11:06:36;;;;;;;11.10;3.80;;;11.70;99.90;;;;;;5048926;28;20079;-71
2021/10/16 11:09:18;;;;;;;9.98;4.10;;;11.70;99.90;;;;;;5031499;28;20068;-71
2021/10/16 11:11:50;;;;;;;11.60;3.72;;;11.70;99.90;;;;;;5049167;28;20041;-70
2021/10/16 11:14:19;;;;;;;12.43;4.32;;;11.80;99.90;;;;;;5048796;28;20060;-71
2021/10/16 11:16:59;;;;;;;10.55;3.97;;;11.80;99.90;;;;;;5049343;28;20040;-71
2021/10/16 11:19:26;;;;;;;9.30;3.20;;;11.80;99.90;;;;;;5033078;28;20153;-71
2021/10/16 11:21:57;;;;;;;11.57;3.78;;;11.80;99.90;;;;;;5047627;28;20528;-70
2021/10/16 11:24:24;;;;;;;12.57;3.92;;;11.90;99.90;;;;;;5049661;28;20495;-71
2021/10/16 11:26:55;;;;;;;9.63;3.20;;;11.90;99.90;;;;;;5032185;28;20086;-71
2021/10/16 11:29:33;;;;;;;8.35;3.75;;;11.90;99.90;;;;;;5049455;28;20052;-71
2021/10/16 11:32:16;;;;;;;9.85;3.45;;;11.90;99.90;;;;;;5048886;28;20070;-71
2021/10/16 11:34:55;;;;;;;9.63;3.47;;;11.90;99.90;;;;;;5049441;28;20568;-71
2021/10/16 11:37:47;;;;;;;10.85;3.58;;;11.90;99.90;;;;;;5048421;28;20127;-70
2021/10/16 11:40:18;;;;;;;11.15;3.42;;;12.00;99.90;;;;;;5050408;28;20048;-71
2021/10/16 11:42:49;;;;;;;10.45;3.40;;;12.00;99.90;;;;;;5034776;28;20044;-70
2021/10/16 11:45:19;;;;;;;10.43;3.53;;;11.90;99.90;;;;;;5028024;28;20663;-71
2021/10/16 11:47:55;;;;;;;10.15;2.90;;;11.90;99.90;;;;;;5035567;28;20398;-70
2021/10/16 11:50:24;;;;;;;10.75;3.67;;;12.00;99.90;;;;;;5052368;28;20052;-71
2021/10/16 11:53:08;;;;;;;10.85;3.30;;;12.00;99.90;;;;;;5048694;28;20515;-71
2021/10/16 11:55:34;;;;;;;11.40;3.55;;;12.00;99.90;;;;;;5049215;28;20052;-70
2021/10/16 11:58:13;;;;;;;8.30;3.05;;;12.10;99.90;;;;;;5048216;28;20567;-71
2021/10/16 12:00:40;;;;;;;8.93;3.33;;;12.10;99.90;;;;;;5032645;28;20111;-70
2021/10/16 12:03:15;;;;;;;12.05;3.47;;;12.10;99.90;;;;;;5048369;28;20384;-71
2021/10/16 12:05:43;;;;;;;10.77;3.00;;;12.10;99.90;;;;;;5046993;28;20059;-71
2021/10/16 12:08:29;;;;;;;11.07;3.38;;;12.10;99.90;;;;;;4998954;28;20044;-71
2021/10/16 12:11:03;;;;;;;9.63;3.33;;;12.20;99.90;;;;;;5047751;28;20096;-72
2021/10/16 12:14:09;;;;;;;11.35;3.35;;;12.20;99.90;;;;;;5056358;28;20041;-71
2021/10/16 12:16:45;;;;;;;10.35;3.67;;;12.20;99.90;;;;;;5028285;28;20508;-72
2021/10/16 12:19:19;;;;;;;12.23;3.55;;;12.20;99.90;;;;;;5047571;28;20041;-71
2021/10/16 12:21:49;;;;;;;9.63;2.80;;;12.20;99.90;;;;;;5047689;28;20053;-72
2021/10/16 12:24:24;;;;;;;9.13;2.80;;;12.20;99.90;;;;;;5015267;28;20045;-72
2021/10/16 12:27:04;;;;;;;12.32;3.33;;;12.20;99.90;;;;;;5057594;28;20041;-72
2021/10/16 12:29:34;;;;;;;11.00;3.03;;;12.20;99.90;;;;;;5048823;28;20049;-73
2021/10/16 12:32:04;;;;;;;13.73;3.15;;;12.20;99.90;;;;;;5048194;28;20041;-72
2021/10/16 12:34:34;;;;;;;10.32;3.20;;;12.20;99.90;;;;;;5048816;28;20102;-72
2021/10/16 12:37:02;;;;;;;14.07;4.20;;;12.20;99.90;;;;;;5047324;28;20112;-72
2021/10/16 12:39:41;;;;;;;8.82;3.22;;;12.20;99.90;;;;;;5048637;28;20053;-73
2021/10/16 12:42:22;;;;;;;11.55;3.40;;;12.20;99.90;;;;;;5031436;28;20041;-72
2021/10/16 12:44:49;;;;;;;11.07;2.97;;;12.20;99.90;;;;;;5046471;28;20507;-72
2021/10/16 12:47:23;;;;;;;12.43;3.25;;;12.20;99.90;;;;;;5047162;28;20443;-72
2021/10/16 12:49:59;;;;;;;11.60;3.50;;;12.20;99.90;;;;;;5028877;28;20048;-73
2021/10/16 12:52:42;;;;;;;11.30;2.90;;;12.10;99.90;;;;;;5049707;28;20057;-72